sensor_id;sensor_type;location;lat;lon;timestamp;P1;durP1;ratioP1;P2;durP2;ratioP2
29568;SDS011;16501;51.462;14.346;2022-08-01T00:00:08;5.93;;;2.20;;
29568;SDS011;16501;51.462;14.346;2022-08-01T00:02:34;3.08;;;2.33;;
29568;SDS011;16501;51.462;14.346;2022-08-01T00:04:59;4.50;;;2.50;;
29568;SDS011;16501;51.462;14.346;2022-08-01T00:07:25;3.13;;;2.25;;
29568;SDS011;16501;51.462;14.346;2022-08-01T00:09:50;5.07;;;2.50;;
29568;SDS011;16501;51.462;14.346;2022-08-01T00:12:16;3.05;;;2.35;;
29568;SDS011;16501;51.462;14.346;2022-08-01T00:14:41;5.90;;;2.00;;
29568;SDS011;16501;51.462;14.346;2022-08-01T00:17:07;2.65;;;2.28;;
29568;SDS011;16501;51.462;14.346;2022-08-01T00:19:32;5.00;;;2.17;;
29568;SDS011;16501;51.462;14.346;2022-08-01T00:21:57;4.38;;;2.50;;
29568;SDS011;16501;51.462;14.346;2022-08-01T00:24:23;2.85;;;2.55;;
29568;SDS011;16501;51.462;14.346;2022-08-01T00:26:48;3.65;;;2.25;;
29568;SDS011;16501;51.462;14.346;2022-08-01T00:29:13;5.57;;;2.63;;
29568;SDS011;16501;51.462;14.346;2022-08-01T00:31:39;2.47;;;2.15;;
29568;SDS011;16501;51.462;14.346;2022-08-01T00:34:04;7.72;;;2.50;;
29568;SDS011;16501;51.462;14.346;2022-08-01T00:36:29;2.70;;;2.50;;
29568;SDS011;16501;51.462;14.346;2022-08-01T00:38:54;5.50;;;2.50;;
29568;SDS011;16501;51.462;14.346;2022-08-01T00:41:20;4.43;;;2.25;;
29568;SDS011;16501;51.462;14.346;2022-08-01T00:43:45;4.40;;;2.47;;
29568;SDS011;16501;51.462;14.346;2022-08-01T00:46:10;3.92;;;2.60;;
29568;SDS011;16501;51.462;14.346;2022-08-01T00:48:35;4.30;;;1.98;;
29568;SDS011;16501;51.462;14.346;2022-08-01T00:51:02;4.82;;;2.35;;
29568;SDS011;16501;51.462;14.346;2022-08-01T00:53:28;7.18;;;2.42;;
29568;SDS011;16501;51.462;14.346;2022-08-01T00:55:54;6.70;;;2.40;;
29568;SDS011;16501;51.462;14.346;2022-08-01T00:58:21;2.92;;;2.45;;
29568;SDS011;16501;51.462;14.346;2022-08-01T01:00:47;4.03;;;2.50;;
29568;SDS011;16501;51.462;14.346;2022-08-01T01:03:13;7.20;;;2.45;;
29568;SDS011;16501;51.462;14.346;2022-08-01T01:05:41;3.70;;;2.30;;
29568;SDS011;16501;51.462;14.346;2022-08-01T01:08:22;6.88;;;2.30;;
29568;SDS011;16501;51.462;14.346;2022-08-01T01:10:53;3.10;;;2.42;;
29568;SDS011;16501;51.462;14.346;2022-08-01T01:13:36;5.47;;;2.50;;
29568;SDS011;16501;51.462;14.346;2022-08-01T01:16:10;4.63;;;2.42;;
29568;SDS011;16501;51.462;14.346;2022-08-01T01:18:43;2.90;;;2.60;;
29568;SDS011;16501;51.462;14.346;2022-08-01T01:23:50;3.80;;;2.67;;
29568;SDS011;16501;51.462;14.346;2022-08-01T01:26:59;5.00;;;2.67;;
29568;SDS011;16501;51.462;14.346;2022-08-01T01:29:32;3.75;;;2.22;;
29568;SDS011;16501;51.462;14.346;2022-08-01T01:32:07;3.17;;;2.40;;
29568;SDS011;16501;51.462;14.346;2022-08-01T01:34:38;6.53;;;2.47;;
29568;SDS011;16501;51.462;14.346;2022-08-01T01:37:07;3.83;;;2.53;;
29568;SDS011;16501;51.462;14.346;2022-08-01T01:39:37;5.40;;;2.50;;
29568;SDS011;16501;51.462;14.346;2022-08-01T01:42:05;2.50;;;2.30;;
29568;SDS011;16501;51.462;14.346;2022-08-01T01:44:31;4.57;;;2.50;;
29568;SDS011;16501;51.462;14.346;2022-08-01T01:46:57;3.38;;;2.40;;
29568;SDS011;16501;51.462;14.346;2022-08-01T01:49:25;3.80;;;2.63;;
29568;SDS011;16501;51.462;14.346;2022-08-01T01:51:56;5.93;;;2.70;;
29568;SDS011;16501;51.462;14.346;2022-08-01T01:54:22;4.72;;;2.63;;
29568;SDS011;16501;51.462;14.346;2022-08-01T01:56:50;3.03;;;2.50;;
29568;SDS011;16501;51.462;14.346;2022-08-01T01:59:20;3.72;;;2.88;;
29568;SDS011;16501;51.462;14.346;2022-08-01T02:01:49;4.97;;;3.08;;
29568;SDS011;16501;51.462;14.346;2022-08-01T02:04:16;4.65;;;2.50;;
29568;SDS011;16501;51.462;14.346;2022-08-01T02:06:43;7.55;;;2.63;;
29568;SDS011;16501;51.462;14.346;2022-08-01T02:09:11;3.63;;;2.53;;
29568;SDS011;16501;51.462;14.346;2022-08-01T02:11:45;2.85;;;2.63;;
29568;SDS011;16501;51.462;14.346;2022-08-01T02:14:12;4.18;;;2.78;;
29568;SDS011;16501;51.462;14.346;2022-08-01T02:16:40;5.50;;;2.45;;
29568;SDS011;16501;51.462;14.346;2022-08-01T02:19:08;4.30;;;2.40;;
29568;SDS011;16501;51.462;14.346;2022-08-01T02:21:38;5.82;;;2.80;;
29568;SDS011;16501;51.462;14.346;2022-08-01T02:24:28;7.78;;;2.92;;
29568;SDS011;16501;51.462;14.346;2022-08-01T02:27:23;3.55;;;3.03;;
29568;SDS011;16501;51.462;14.346;2022-08-01T02:29:53;4.78;;;3.17;;
29568;SDS011;16501;51.462;14.346;2022-08-01T02:32:24;6.30;;;3.00;;
29568;SDS011;16501;51.462;14.346;2022-08-01T02:37:21;4.30;;;2.90;;
29568;SDS011;16501;51.462;14.346;2022-08-01T02:39:50;4.05;;;2.92;;
29568;SDS011;16501;51.462;14.346;2022-08-01T02:42:17;4.85;;;3.00;;
29568;SDS011;16501;51.462;14.346;2022-08-01T02:44:43;4.60;;;3.20;;
29568;SDS011;16501;51.462;14.346;2022-08-01T02:47:11;9.15;;;3.28;;
29568;SDS011;16501;51.462;14.346;2022-08-01T02:49:40;6.00;;;3.40;;
29568;SDS011;16501;51.462;14.346;2022-08-01T02:52:09;6.13;;;2.53;;
29568;SDS011;16501;51.462;14.346;2022-08-01T02:54:38;5.00;;;3.20;;
29568;SDS011;16501;51.462;14.346;2022-08-01T02:57:05;6.95;;;3.05;;
29568;SDS011;16501;51.462;14.346;2022-08-01T02:59:33;4.00;;;2.80;;
29568;SDS011;16501;51.462;14.346;2022-08-01T03:02:02;3.92;;;2.80;;
29568;SDS011;16501;51.462;14.346;2022-08-01T03:04:30;3.85;;;2.97;;
29568;SDS011;16501;51.462;14.346;2022-08-01T03:06:58;6.38;;;2.80;;
29568;SDS011;16501;51.462;14.346;2022-08-01T03:09:27;6.13;;;2.90;;
29568;SDS011;16501;51.462;14.346;2022-08-01T03:11:54;8.25;;;3.03;;
29568;SDS011;16501;51.462;14.346;2022-08-01T03:14:23;4.97;;;3.08;;
29568;SDS011;16501;51.462;14.346;2022-08-01T03:16:51;6.30;;;3.05;;
29568;SDS011;16501;51.462;14.346;2022-08-01T03:19:18;5.20;;;3.15;;
29568;SDS011;16501;51.462;14.346;2022-08-01T03:21:45;6.43;;;3.15;;
29568;SDS011;16501;51.462;14.346;2022-08-01T03:24:12;4.22;;;2.83;;
29568;SDS011;16501;51.462;14.346;2022-08-01T03:26:39;4.15;;;2.95;;
29568;SDS011;16501;51.462;14.346;2022-08-01T03:29:06;4.40;;;2.65;;
29568;SDS011;16501;51.462;14.346;2022-08-01T03:31:37;6.17;;;3.03;;
29568;SDS011;16501;51.462;14.346;2022-08-01T03:34:07;5.75;;;2.88;;
29568;SDS011;16501;51.462;14.346;2022-08-01T03:36:33;6.55;;;2.75;;
29568;SDS011;16501;51.462;14.346;2022-08-01T03:39:03;5.57;;;2.78;;
29568;SDS011;16501;51.462;14.346;2022-08-01T03:41:32;4.25;;;2.92;;
29568;SDS011;16501;51.462;14.346;2022-08-01T03:44:07;10.60;;;3.38;;
29568;SDS011;16501;51.462;14.346;2022-08-01T03:46:48;3.45;;;3.15;;
29568;SDS011;16501;51.462;14.346;2022-08-01T03:49:22;9.20;;;2.92;;
29568;SDS011;16501;51.462;14.346;2022-08-01T03:51:50;3.70;;;2.72;;
29568;SDS011;16501;51.462;14.346;2022-08-01T03:54:19;4.07;;;2.50;;
29568;SDS011;16501;51.462;14.346;2022-08-01T03:56:48;5.50;;;3.00;;
29568;SDS011;16501;51.462;14.346;2022-08-01T03:59:15;6.40;;;3.05;;
29568;SDS011;16501;51.462;14.346;2022-08-01T04:01:43;6.72;;;3.10;;
29568;SDS011;16501;51.462;14.346;2022-08-01T04:04:09;7.65;;;3.08;;
29568;SDS011;16501;51.462;14.346;2022-08-01T04:06:39;5.38;;;3.10;;
29568;SDS011;16501;51.462;14.346;2022-08-01T04:09:09;4.90;;;2.85;;
29568;SDS011;16501;51.462;14.346;2022-08-01T04:11:35;4.93;;;3.00;;
29568;SDS011;16501;51.462;14.346;2022-08-01T04:14:01;6.75;;;3.65;;
29568;SDS011;16501;51.462;14.346;2022-08-01T04:16:26;5.63;;;2.80;;
29568;SDS011;16501;51.462;14.346;2022-08-01T04:18:51;3.45;;;2.90;;
29568;SDS011;16501;51.462;14.346;2022-08-01T04:21:22;4.35;;;3.20;;
29568;SDS011;16501;51.462;14.346;2022-08-01T04:23:49;4.93;;;3.03;;
29568;SDS011;16501;51.462;14.346;2022-08-01T04:26:18;4.68;;;3.10;;
29568;SDS011;16501;51.462;14.346;2022-08-01T04:28:46;6.32;;;3.22;;
29568;SDS011;16501;51.462;14.346;2022-08-01T04:31:15;6.10;;;3.30;;
29568;SDS011;16501;51.462;14.346;2022-08-01T04:33:42;3.33;;;2.92;;
29568;SDS011;16501;51.462;14.346;2022-08-01T04:36:10;6.05;;;2.97;;
29568;SDS011;16501;51.462;14.346;2022-08-01T04:38:39;6.20;;;2.85;;
29568;SDS011;16501;51.462;14.346;2022-08-01T04:41:07;3.40;;;3.08;;
29568;SDS011;16501;51.462;14.346;2022-08-01T04:43:36;4.18;;;2.80;;
29568;SDS011;16501;51.462;14.346;2022-08-01T04:46:02;3.33;;;3.00;;
29568;SDS011;16501;51.462;14.346;2022-08-01T04:48:28;4.65;;;3.13;;
29568;SDS011;16501;51.462;14.346;2022-08-01T04:50:55;6.82;;;2.88;;
29568;SDS011;16501;51.462;14.346;2022-08-01T04:53:20;3.88;;;2.70;;
29568;SDS011;16501;51.462;14.346;2022-08-01T04:55:48;4.88;;;3.05;;
29568;SDS011;16501;51.462;14.346;2022-08-01T04:58:14;8.63;;;2.67;;
29568;SDS011;16501;51.462;14.346;2022-08-01T05:00:40;4.78;;;2.75;;
29568;SDS011;16501;51.462;14.346;2022-08-01T05:03:06;3.58;;;2.97;;
29568;SDS011;16501;51.462;14.346;2022-08-01T05:05:31;3.60;;;2.53;;
29568;SDS011;16501;51.462;14.346;2022-08-01T05:07:56;4.60;;;3.20;;
29568;SDS011;16501;51.462;14.346;2022-08-01T05:10:22;3.97;;;3.05;;
29568;SDS011;16501;51.462;14.346;2022-08-01T05:12:47;5.18;;;2.80;;
29568;SDS011;16501;51.462;14.346;2022-08-01T05:15:12;10.95;;;2.53;;
29568;SDS011;16501;51.462;14.346;2022-08-01T05:17:38;11.80;;;2.65;;
29568;SDS011;16501;51.462;14.346;2022-08-01T05:20:03;3.50;;;3.20;;
29568;SDS011;16501;51.462;14.346;2022-08-01T05:22:31;4.63;;;2.55;;
29568;SDS011;16501;51.462;14.346;2022-08-01T05:24:56;9.70;;;2.92;;
29568;SDS011;16501;51.462;14.346;2022-08-01T05:27:21;4.80;;;2.63;;
29568;SDS011;16501;51.462;14.346;2022-08-01T05:29:47;7.32;;;2.97;;
29568;SDS011;16501;51.462;14.346;2022-08-01T05:32:12;9.27;;;3.20;;
29568;SDS011;16501;51.462;14.346;2022-08-01T05:34:37;14.35;;;3.10;;
29568;SDS011;16501;51.462;14.346;2022-08-01T05:37:03;8.55;;;3.03;;
29568;SDS011;16501;51.462;14.346;2022-08-01T05:39:28;3.92;;;3.08;;
29568;SDS011;16501;51.462;14.346;2022-08-01T05:41:53;7.85;;;3.08;;
29568;SDS011;16501;51.462;14.346;2022-08-01T05:44:18;12.35;;;3.10;;
29568;SDS011;16501;51.462;14.346;2022-08-01T05:46:44;4.55;;;2.80;;
29568;SDS011;16501;51.462;14.346;2022-08-01T05:49:09;7.43;;;2.88;;
29568;SDS011;16501;51.462;14.346;2022-08-01T05:51:34;5.78;;;2.92;;
29568;SDS011;16501;51.462;14.346;2022-08-01T05:54:00;3.63;;;3.28;;
29568;SDS011;16501;51.462;14.346;2022-08-01T05:56:25;7.20;;;2.95;;
29568;SDS011;16501;51.462;14.346;2022-08-01T05:58:50;7.60;;;3.13;;
29568;SDS011;16501;51.462;14.346;2022-08-01T06:01:16;6.65;;;2.65;;
29568;SDS011;16501;51.462;14.346;2022-08-01T06:03:42;4.32;;;3.47;;
29568;SDS011;16501;51.462;14.346;2022-08-01T06:06:07;6.22;;;2.88;;
29568;SDS011;16501;51.462;14.346;2022-08-01T06:08:33;7.03;;;3.00;;
29568;SDS011;16501;51.462;14.346;2022-08-01T06:10:58;4.43;;;3.28;;
29568;SDS011;16501;51.462;14.346;2022-08-01T06:13:24;6.97;;;3.30;;
29568;SDS011;16501;51.462;14.346;2022-08-01T06:15:49;10.85;;;2.83;;
29568;SDS011;16501;51.462;14.346;2022-08-01T06:18:15;3.08;;;2.78;;
29568;SDS011;16501;51.462;14.346;2022-08-01T06:20:41;4.50;;;3.17;;
29568;SDS011;16501;51.462;14.346;2022-08-01T06:23:07;8.27;;;2.80;;
29568;SDS011;16501;51.462;14.346;2022-08-01T06:25:33;8.02;;;3.25;;
29568;SDS011;16501;51.462;14.346;2022-08-01T06:27:58;8.10;;;3.45;;
29568;SDS011;16501;51.462;14.346;2022-08-01T06:30:24;4.47;;;3.28;;
29568;SDS011;16501;51.462;14.346;2022-08-01T06:32:49;4.38;;;3.33;;
29568;SDS011;16501;51.462;14.346;2022-08-01T06:35:14;4.75;;;3.03;;
29568;SDS011;16501;51.462;14.346;2022-08-01T06:37:40;6.40;;;3.25;;
29568;SDS011;16501;51.462;14.346;2022-08-01T06:40:07;4.80;;;3.42;;
29568;SDS011;16501;51.462;14.346;2022-08-01T06:42:34;4.13;;;2.90;;
29568;SDS011;16501;51.462;14.346;2022-08-01T06:45:06;4.25;;;2.88;;
29568;SDS011;16501;51.462;14.346;2022-08-01T06:47:39;5.40;;;2.33;;
29568;SDS011;16501;51.462;14.346;2022-08-01T06:50:06;3.13;;;2.47;;
29568;SDS011;16501;51.462;14.346;2022-08-01T06:52:32;4.25;;;2.50;;
29568;SDS011;16501;51.462;14.346;2022-08-01T06:54:58;3.55;;;3.10;;
29568;SDS011;16501;51.462;14.346;2022-08-01T06:57:24;3.50;;;2.50;;
29568;SDS011;16501;51.462;14.346;2022-08-01T06:59:49;3.88;;;2.60;;
29568;SDS011;16501;51.462;14.346;2022-08-01T07:02:14;4.15;;;2.50;;
29568;SDS011;16501;51.462;14.346;2022-08-01T07:04:40;5.72;;;2.92;;
29568;SDS011;16501;51.462;14.346;2022-08-01T07:07:05;3.38;;;2.90;;
29568;SDS011;16501;51.462;14.346;2022-08-01T07:09:30;3.70;;;2.60;;
29568;SDS011;16501;51.462;14.346;2022-08-01T07:11:55;3.95;;;2.40;;
29568;SDS011;16501;51.462;14.346;2022-08-01T07:14:22;4.13;;;2.50;;
29568;SDS011;16501;51.462;14.346;2022-08-01T07:16:48;5.82;;;2.75;;
29568;SDS011;16501;51.462;14.346;2022-08-01T07:19:14;3.75;;;2.70;;
29568;SDS011;16501;51.462;14.346;2022-08-01T07:21:39;2.67;;;2.25;;
29568;SDS011;16501;51.462;14.346;2022-08-01T07:24:05;5.88;;;2.22;;
29568;SDS011;16501;51.462;14.346;2022-08-01T07:26:31;5.32;;;2.75;;
29568;SDS011;16501;51.462;14.346;2022-08-01T07:28:57;2.22;;;1.90;;
29568;SDS011;16501;51.462;14.346;2022-08-01T07:31:22;2.53;;;1.92;;
29568;SDS011;16501;51.462;14.346;2022-08-01T07:33:48;3.90;;;1.73;;
29568;SDS011;16501;51.462;14.346;2022-08-01T07:36:14;3.17;;;2.00;;
29568;SDS011;16501;51.462;14.346;2022-08-01T07:38:39;1.58;;;1.48;;
29568;SDS011;16501;51.462;14.346;2022-08-01T07:41:05;3.92;;;1.85;;
29568;SDS011;16501;51.462;14.346;2022-08-01T07:43:30;1.80;;;1.52;;
29568;SDS011;16501;51.462;14.346;2022-08-01T07:45:55;2.88;;;1.75;;
29568;SDS011;16501;51.462;14.346;2022-08-01T07:48:20;1.50;;;1.30;;
29568;SDS011;16501;51.462;14.346;2022-08-01T07:50:49;2.50;;;1.95;;
29568;SDS011;16501;51.462;14.346;2022-08-01T07:53:14;2.05;;;1.30;;
29568;SDS011;16501;51.462;14.346;2022-08-01T07:55:40;2.28;;;1.60;;
29568;SDS011;16501;51.462;14.346;2022-08-01T07:58:05;1.65;;;1.55;;
29568;SDS011;16501;51.462;14.346;2022-08-01T08:00:30;2.08;;;1.52;;
29568;SDS011;16501;51.462;14.346;2022-08-01T08:02:55;4.15;;;1.50;;
29568;SDS011;16501;51.462;14.346;2022-08-01T08:05:23;1.90;;;1.67;;
29568;SDS011;16501;51.462;14.346;2022-08-01T08:07:49;2.05;;;1.63;;
29568;SDS011;16501;51.462;14.346;2022-08-01T08:10:14;1.92;;;1.60;;
29568;SDS011;16501;51.462;14.346;2022-08-01T08:12:39;1.73;;;1.20;;
29568;SDS011;16501;51.462;14.346;2022-08-01T08:15:04;1.65;;;1.52;;
29568;SDS011;16501;51.462;14.346;2022-08-01T08:17:30;1.90;;;1.70;;
29568;SDS011;16501;51.462;14.346;2022-08-01T08:19:56;2.00;;;1.85;;
29568;SDS011;16501;51.462;14.346;2022-08-01T08:22:22;3.60;;;1.70;;
29568;SDS011;16501;51.462;14.346;2022-08-01T08:24:47;2.65;;;2.08;;
29568;SDS011;16501;51.462;14.346;2022-08-01T08:27:13;2.65;;;1.90;;
29568;SDS011;16501;51.462;14.346;2022-08-01T08:29:38;1.85;;;1.70;;
29568;SDS011;16501;51.462;14.346;2022-08-01T08:32:04;1.90;;;1.80;;
29568;SDS011;16501;51.462;14.346;2022-08-01T08:34:29;2.95;;;1.70;;
29568;SDS011;16501;51.462;14.346;2022-08-01T08:36:55;3.42;;;2.10;;
29568;SDS011;16501;51.462;14.346;2022-08-01T08:39:21;2.50;;;1.90;;
29568;SDS011;16501;51.462;14.346;2022-08-01T08:41:47;3.97;;;1.85;;
29568;SDS011;16501;51.462;14.346;2022-08-01T08:44:13;2.53;;;1.80;;
29568;SDS011;16501;51.462;14.346;2022-08-01T08:46:43;1.83;;;1.73;;
29568;SDS011;16501;51.462;14.346;2022-08-01T08:49:10;2.85;;;1.90;;
29568;SDS011;16501;51.462;14.346;2022-08-01T08:51:39;3.63;;;1.70;;
29568;SDS011;16501;51.462;14.346;2022-08-01T08:54:07;2.72;;;2.13;;
29568;SDS011;16501;51.462;14.346;2022-08-01T08:56:35;2.35;;;2.05;;
29568;SDS011;16501;51.462;14.346;2022-08-01T08:59:02;3.80;;;2.00;;
29568;SDS011;16501;51.462;14.346;2022-08-01T09:01:28;4.55;;;2.10;;
29568;SDS011;16501;51.462;14.346;2022-08-01T09:03:54;3.05;;;2.00;;
29568;SDS011;16501;51.462;14.346;2022-08-01T09:06:19;2.95;;;1.73;;
29568;SDS011;16501;51.462;14.346;2022-08-01T09:08:45;3.60;;;2.00;;
29568;SDS011;16501;51.462;14.346;2022-08-01T09:11:10;2.15;;;1.95;;
29568;SDS011;16501;51.462;14.346;2022-08-01T09:13:36;2.97;;;1.65;;
29568;SDS011;16501;51.462;14.346;2022-08-01T09:16:01;2.22;;;1.60;;
29568;SDS011;16501;51.462;14.346;2022-08-01T09:21:15;2.42;;;1.75;;
29568;SDS011;16501;51.462;14.346;2022-08-01T09:23:44;4.00;;;1.88;;
29568;SDS011;16501;51.462;14.346;2022-08-01T09:26:12;1.70;;;1.60;;
29568;SDS011;16501;51.462;14.346;2022-08-01T09:28:39;1.60;;;1.50;;
29568;SDS011;16501;51.462;14.346;2022-08-01T09:31:06;1.70;;;1.58;;
29568;SDS011;16501;51.462;14.346;2022-08-01T09:33:46;1.77;;;1.67;;
29568;SDS011;16501;51.462;14.346;2022-08-01T09:36:12;2.55;;;1.77;;
29568;SDS011;16501;51.462;14.346;2022-08-01T09:38:37;1.73;;;1.63;;
29568;SDS011;16501;51.462;14.346;2022-08-01T09:41:02;1.90;;;1.80;;
29568;SDS011;16501;51.462;14.346;2022-08-01T09:43:28;2.10;;;1.92;;
29568;SDS011;16501;51.462;14.346;2022-08-01T09:45:55;2.35;;;1.65;;
29568;SDS011;16501;51.462;14.346;2022-08-01T09:48:21;2.67;;;1.95;;
29568;SDS011;16501;51.462;14.346;2022-08-01T09:50:47;2.75;;;1.55;;
29568;SDS011;16501;51.462;14.346;2022-08-01T09:53:14;2.53;;;1.63;;
29568;SDS011;16501;51.462;14.346;2022-08-01T09:55:41;1.40;;;1.30;;
29568;SDS011;16501;51.462;14.346;2022-08-01T09:58:06;7.35;;;1.58;;
29568;SDS011;16501;51.462;14.346;2022-08-01T10:00:32;1.50;;;1.40;;
29568;SDS011;16501;51.462;14.346;2022-08-01T10:02:59;3.08;;;1.73;;
29568;SDS011;16501;51.462;14.346;2022-08-01T10:05:34;1.92;;;1.75;;
29568;SDS011;16501;51.462;14.346;2022-08-01T10:08:01;3.97;;;1.58;;
29568;SDS011;16501;51.462;14.346;2022-08-01T10:10:29;2.20;;;1.75;;
29568;SDS011;16501;51.462;14.346;2022-08-01T10:12:56;1.90;;;1.63;;
29568;SDS011;16501;51.462;14.346;2022-08-01T10:15:25;2.88;;;1.60;;
29568;SDS011;16501;51.462;14.346;2022-08-01T10:17:53;3.38;;;1.40;;
29568;SDS011;16501;51.462;14.346;2022-08-01T10:20:21;2.45;;;1.42;;
29568;SDS011;16501;51.462;14.346;2022-08-01T10:22:49;1.15;;;1.08;;
29568;SDS011;16501;51.462;14.346;2022-08-01T10:25:17;1.15;;;1.05;;
29568;SDS011;16501;51.462;14.346;2022-08-01T10:27:44;5.40;;;1.20;;
29568;SDS011;16501;51.462;14.346;2022-08-01T10:30:13;3.10;;;1.20;;
29568;SDS011;16501;51.462;14.346;2022-08-01T10:32:39;3.67;;;1.30;;
29568;SDS011;16501;51.462;14.346;2022-08-01T10:35:07;3.63;;;1.33;;
29568;SDS011;16501;51.462;14.346;2022-08-01T10:37:33;9.27;;;1.90;;
29568;SDS011;16501;51.462;14.346;2022-08-01T10:40:00;2.55;;;1.50;;
29568;SDS011;16501;51.462;14.346;2022-08-01T10:42:26;3.17;;;1.25;;
29568;SDS011;16501;51.462;14.346;2022-08-01T10:44:52;10.48;;;1.48;;
29568;SDS011;16501;51.462;14.346;2022-08-01T10:47:27;4.93;;;1.50;;
29568;SDS011;16501;51.462;14.346;2022-08-01T10:50:17;5.90;;;1.15;;
29568;SDS011;16501;51.462;14.346;2022-08-01T10:53:07;2.05;;;0.88;;
29568;SDS011;16501;51.462;14.346;2022-08-01T11:01:16;5.70;;;0.93;;
29568;SDS011;16501;51.462;14.346;2022-08-01T11:09:03;1.17;;;0.70;;
29568;SDS011;16501;51.462;14.346;2022-08-01T11:11:30;1.23;;;0.30;;
29568;SDS011;16501;51.462;14.346;2022-08-01T11:14:04;1.65;;;0.25;;
29568;SDS011;16501;51.462;14.346;2022-08-01T11:16:37;1.60;;;0.30;;
29568;SDS011;16501;51.462;14.346;2022-08-01T11:19:03;0.20;;;0.20;;
29568;SDS011;16501;51.462;14.346;2022-08-01T11:27:16;0.25;;;0.22;;
29568;SDS011;16501;51.462;14.346;2022-08-01T11:29:42;2.20;;;0.30;;
29568;SDS011;16501;51.462;14.346;2022-08-01T11:32:23;1.52;;;0.32;;
29568;SDS011;16501;51.462;14.346;2022-08-01T11:34:55;4.63;;;0.73;;
29568;SDS011;16501;51.462;14.346;2022-08-01T11:42:45;0.77;;;0.40;;
29568;SDS011;16501;51.462;14.346;2022-08-01T11:45:11;1.75;;;0.50;;
29568;SDS011;16501;51.462;14.346;2022-08-01T11:47:43;0.50;;;0.50;;
29568;SDS011;16501;51.462;14.346;2022-08-01T11:50:29;0.98;;;0.50;;
29568;SDS011;16501;51.462;14.346;2022-08-01T11:53:00;0.52;;;0.52;;
29568;SDS011;16501;51.462;14.346;2022-08-01T11:55:27;0.38;;;0.38;;
29568;SDS011;16501;51.462;14.346;2022-08-01T11:58:06;0.50;;;0.38;;
29568;SDS011;16501;51.462;14.346;2022-08-01T12:00:32;0.30;;;0.30;;
29568;SDS011;16501;51.462;14.346;2022-08-01T12:03:03;0.50;;;0.50;;
29568;SDS011;16501;51.462;14.346;2022-08-01T12:07:56;0.85;;;0.52;;
29568;SDS011;16501;51.462;14.346;2022-08-01T12:10:23;3.03;;;0.40;;
29568;SDS011;16501;51.462;14.346;2022-08-01T12:12:55;0.30;;;0.30;;
29568;SDS011;16501;51.462;14.346;2022-08-01T12:15:24;0.40;;;0.40;;
29568;SDS011;16501;51.462;14.346;2022-08-01T12:17:56;2.00;;;0.63;;
29568;SDS011;16501;51.462;14.346;2022-08-01T12:20:25;0.82;;;0.80;;
29568;SDS011;16501;51.462;14.346;2022-08-01T12:22:55;3.03;;;0.95;;
29568;SDS011;16501;51.462;14.346;2022-08-01T12:25:21;0.85;;;0.77;;
29568;SDS011;16501;51.462;14.346;2022-08-01T12:27:47;1.45;;;0.90;;
29568;SDS011;16501;51.462;14.346;2022-08-01T12:30:14;0.60;;;0.60;;
29568;SDS011;16501;51.462;14.346;2022-08-01T12:32:42;0.75;;;0.75;;
29568;SDS011;16501;51.462;14.346;2022-08-01T12:35:11;0.88;;;0.85;;
29568;SDS011;16501;51.462;14.346;2022-08-01T12:37:40;1.73;;;0.80;;
29568;SDS011;16501;51.462;14.346;2022-08-01T12:40:19;1.10;;;1.00;;
29568;SDS011;16501;51.462;14.346;2022-08-01T12:42:49;1.20;;;1.10;;
29568;SDS011;16501;51.462;14.346;2022-08-01T12:45:20;1.00;;;0.95;;
29568;SDS011;16501;51.462;14.346;2022-08-01T12:47:48;1.13;;;1.02;;
29568;SDS011;16501;51.462;14.346;2022-08-01T12:50:18;1.65;;;1.20;;
29568;SDS011;16501;51.462;14.346;2022-08-01T12:52:46;2.67;;;1.10;;
29568;SDS011;16501;51.462;14.346;2022-08-01T12:57:41;2.88;;;1.25;;
29568;SDS011;16501;51.462;14.346;2022-08-01T13:00:14;1.88;;;1.20;;
29568;SDS011;16501;51.462;14.346;2022-08-01T13:02:42;1.67;;;1.10;;
29568;SDS011;16501;51.462;14.346;2022-08-01T13:05:08;2.75;;;1.38;;
29568;SDS011;16501;51.462;14.346;2022-08-01T13:07:35;1.25;;;1.00;;
29568;SDS011;16501;51.462;14.346;2022-08-01T13:10:02;1.10;;;1.00;;
29568;SDS011;16501;51.462;14.346;2022-08-01T13:12:28;1.45;;;1.15;;
29568;SDS011;16501;51.462;14.346;2022-08-01T13:14:53;1.67;;;1.10;;
29568;SDS011;16501;51.462;14.346;2022-08-01T13:17:34;1.65;;;1.05;;
29568;SDS011;16501;51.462;14.346;2022-08-01T13:20:03;1.48;;;1.25;;
29568;SDS011;16501;51.462;14.346;2022-08-01T13:22:33;1.33;;;1.13;;
29568;SDS011;16501;51.462;14.346;2022-08-01T13:25:09;1.38;;;1.23;;
29568;SDS011;16501;51.462;14.346;2022-08-01T13:27:38;0.90;;;0.90;;
29568;SDS011;16501;51.462;14.346;2022-08-01T13:30:15;1.60;;;0.90;;
29568;SDS011;16501;51.462;14.346;2022-08-01T13:32:42;1.17;;;1.08;;
29568;SDS011;16501;51.462;14.346;2022-08-01T13:35:09;1.27;;;0.90;;
29568;SDS011;16501;51.462;14.346;2022-08-01T13:37:40;0.90;;;0.90;;
29568;SDS011;16501;51.462;14.346;2022-08-01T13:40:07;1.13;;;1.08;;
29568;SDS011;16501;51.462;14.346;2022-08-01T13:42:34;1.10;;;1.00;;
29568;SDS011;16501;51.462;14.346;2022-08-01T13:44:59;2.50;;;1.17;;
29568;SDS011;16501;51.462;14.346;2022-08-01T13:47:25;1.00;;;1.00;;
29568;SDS011;16501;51.462;14.346;2022-08-01T13:49:50;2.00;;;1.27;;
29568;SDS011;16501;51.462;14.346;2022-08-01T13:52:16;1.73;;;1.27;;
29568;SDS011;16501;51.462;14.346;2022-08-01T13:54:41;1.30;;;1.20;;
29568;SDS011;16501;51.462;14.346;2022-08-01T13:57:06;3.92;;;1.60;;
29568;SDS011;16501;51.462;14.346;2022-08-01T13:59:32;1.60;;;1.50;;
29568;SDS011;16501;51.462;14.346;2022-08-01T14:01:58;2.20;;;1.60;;
29568;SDS011;16501;51.462;14.346;2022-08-01T14:04:23;1.48;;;1.33;;
29568;SDS011;16501;51.462;14.346;2022-08-01T14:06:48;1.30;;;1.20;;
29568;SDS011;16501;51.462;14.346;2022-08-01T14:09:14;1.40;;;1.30;;
29568;SDS011;16501;51.462;14.346;2022-08-01T14:11:41;1.60;;;1.20;;
29568;SDS011;16501;51.462;14.346;2022-08-01T14:14:07;1.00;;;1.00;;
29568;SDS011;16501;51.462;14.346;2022-08-01T14:16:32;0.98;;;0.98;;
29568;SDS011;16501;51.462;14.346;2022-08-01T14:18:57;1.08;;;0.98;;
29568;SDS011;16501;51.462;14.346;2022-08-01T14:21:22;1.07;;;0.90;;
29568;SDS011;16501;51.462;14.346;2022-08-01T14:23:48;2.00;;;1.23;;
29568;SDS011;16501;51.462;14.346;2022-08-01T14:26:13;1.20;;;0.88;;
29568;SDS011;16501;51.462;14.346;2022-08-01T14:28:39;1.42;;;0.90;;
29568;SDS011;16501;51.462;14.346;2022-08-01T14:31:05;0.80;;;0.80;;
29568;SDS011;16501;51.462;14.346;2022-08-01T14:33:31;1.23;;;0.90;;
29568;SDS011;16501;51.462;14.346;2022-08-01T14:35:56;0.90;;;0.90;;
29568;SDS011;16501;51.462;14.346;2022-08-01T14:38:21;2.97;;;1.30;;
29568;SDS011;16501;51.462;14.346;2022-08-01T14:40:47;8.45;;;1.27;;
29568;SDS011;16501;51.462;14.346;2022-08-01T14:43:16;3.72;;;1.40;;
29568;SDS011;16501;51.462;14.346;2022-08-01T14:45:41;4.20;;;1.13;;
29568;SDS011;16501;51.462;14.346;2022-08-01T14:48:06;1.20;;;1.13;;
29568;SDS011;16501;51.462;14.346;2022-08-01T14:50:31;1.58;;;1.02;;
29568;SDS011;16501;51.462;14.346;2022-08-01T14:52:57;3.53;;;0.95;;
29568;SDS011;16501;51.462;14.346;2022-08-01T14:55:23;2.13;;;0.93;;
29568;SDS011;16501;51.462;14.346;2022-08-01T14:57:51;1.38;;;1.05;;
29568;SDS011;16501;51.462;14.346;2022-08-01T15:00:16;1.90;;;0.55;;
29568;SDS011;16501;51.462;14.346;2022-08-01T15:02:42;2.88;;;0.80;;
29568;SDS011;16501;51.462;14.346;2022-08-01T15:05:07;0.60;;;0.60;;
29568;SDS011;16501;51.462;14.346;2022-08-01T15:07:34;0.55;;;0.50;;
29568;SDS011;16501;51.462;14.346;2022-08-01T15:10:00;0.60;;;0.60;;